Sm Yantian — 3EHD2 — position and weather

sailwx.info

Track history (hours):
 
Tides and Currents Weather Stations Pressure Air Temp Water Temp Dewpoint Dewpoint Depression Visibility Wind Speed Wind Dir Waves Ship Positions

Sm Yantian

Last reported at 2018-Apr-21 16:58 UTC. Time now 2018-Apr-22 16:24 UTC.
Position N 41°40' E 141°41'.

Length 304 m; draft 12.8 m.

Type: Ship (hazmat cat A). MMSI: 372025000.

Date/timePositionNaut miles runAvg speedWind from/ knotsBaromVisibWave heightAir tempDewpointWater temp
2018-Apr-21 16:58N 41°40' E 141°41'1022.2
2018-Apr-21 16:30N 41°39' E 141°27'1020.8
2018-Apr-21 16:00N 41°38' E 141°13'1121.4
2018-Apr-21 15:30N 41°37' E 140°59'1122.0
2018-Apr-21 15:00N 41°33' E 140°45'1122.7
2018-Apr-21 14:31N 41°27' E 140°32'1223.6
2018-Apr-21 14:00N 41°20' E 140°19'59720.6
2018-Apr-20 09:04N 35°25' E 130°07'619.6
2018-Apr-20 08:46N 35°21' E 130°01'519.8
2018-Apr-20 08:29N 35°19' E 129°55'1020.3
2018-Apr-20 07:59N 35°13' E 129°44'1021.3
2018-Apr-20 07:30N 35°08' E 129°34'1121.6
2018-Apr-20 07:00N 35°01' E 129°23'1121.5
2018-Apr-20 06:29N 34°55' E 129°12'22 1.6
2018-Apr-19 16:50N 35°05' E 128°48'3 4.7
2018-Apr-19 16:14N 35°02' E 128°47'311.1
2018-Apr-19 16:00N 34°59' E 128°49'5 9.8
2018-Apr-19 15:30N 34°55' E 128°52'714.4
2018-Apr-19 15:00N 34°48' E 128°51'816.6
2018-Apr-19 14:30N 34°40' E 128°49'815.4
2018-Apr-19 14:00N 34°34' E 128°43'816.2
2018-Apr-19 13:30N 34°30' E 128°35'815.4
2018-Apr-19 13:00N 34°28' E 128°26'915.5
2018-Apr-19 12:25N 34°30' E 128°15'916.5
2018-Apr-19 11:53N 34°32' E 128°05'718.5
2018-Apr-19 11:30N 34°34' E 127°57'8 0.5
2018-Apr-18 19:57N 34°42' E 127°53'713.3
2018-Apr-18 19:25N 34°36' E 127°57'2515.2
2018-Apr-18 17:47N 34°12' E 128°02'415.5
2018-Apr-18 17:30N 34°08' E 127°60'815.5
2018-Apr-18 17:00N 34°03' E 127°53'815.3
2018-Apr-18 16:30N 33°57' E 127°46'815.2
2018-Apr-18 16:00N 33°51' E 127°40'815.4
2018-Apr-18 15:30N 33°46' E 127°33'815.4
2018-Apr-18 15:00N 33°40' E 127°28'815.5
2018-Apr-18 14:28N 33°33' E 127°22'715.2
2018-Apr-18 14:00N 33°28' E 127°16'1515.3
2018-Apr-18 12:59N 33°17' E 127°04'1015.5
2018-Apr-18 12:21N 33°11' E 126°54'515.4
2018-Apr-18 12:00N 33°08' E 126°49'815.4
2018-Apr-18 11:30N 33°03' E 126°41'815.2
2018-Apr-18 11:00N 32°59' E 126°34'1215.3
2018-Apr-18 10:14N 32°51' E 126°23'8815.9
2018-Apr-18 04:39N 32°06' E 124°52'319.3
2018-Apr-18 04:30N 32°05' E 124°50'1019.2
2018-Apr-18 04:00N 31°59' E 124°40'918.4
2018-Apr-18 03:29N 31°54' E 124°31'917.9
2018-Apr-18 03:00N 31°50' E 124°22'917.6
2018-Apr-18 02:30N 31°46' E 124°13'816.8
2018-Apr-18 02:00N 31°42' E 124°04'917.2
2018-Apr-18 01:29N 31°37' E 123°55'917.1
2018-Apr-18 00:58N 31°32' E 123°47'1216.8
2018-Apr-18 00:15N 31°26' E 123°35'516.8
2018-Apr-17 23:57N 31°23' E 123°29'817.1
2018-Apr-17 23:30N 31°20' E 123°22'1117.7
2018-Apr-17 22:52N 31°13' E 123°11'917.6
2018-Apr-17 22:22N 31°07' E 123°03'618.2
2018-Apr-17 22:00N 31°06' E 122°56'1019.4
2018-Apr-17 21:31N 31°06' E 122°44'1019.8
2018-Apr-17 21:00N 31°06' E 122°33'811.4
2018-Apr-17 20:20N 31°06' E 122°24'514.5
2018-Apr-17 19:59N 31°06' E 122°18'714.9
2018-Apr-17 19:30N 31°10' E 122°11'714.6
2018-Apr-17 19:00N 31°14' E 122°04'612.4
2018-Apr-17 18:30N 31°15' E 121°57'611.2
2018-Apr-17 18:00N 31°17' E 121°50'810.0
2018-Apr-17 17:13N 31°20' E 121°42'6 8.9
2018-Apr-17 16:35N 31°23' E 121°36'1 7.8
2018-Apr-17 16:30N 31°23' E 121°35'0 0.5
2018-Apr-17 15:59N 31°22' E 121°35'0 0.0
2018-Apr-17 15:26N 31°22' E 121°35'0 0.0
2018-Apr-17 14:05N 31°22' E 121°35'0 0.0
2018-Apr-16 18:41N 31°22' E 121°35'0 0.4
2018-Apr-16 18:29N 31°22' E 121°35'0 0.6
2018-Apr-16 17:46N 31°23' E 121°35'0 0.2
2018-Apr-16 17:21N 31°23' E 121°35'0 1.1
2018-Apr-16 17:00N 31°23' E 121°34'0 0.9
2018-Apr-16 16:30N 31°23' E 121°34'1 2.5
2018-Apr-16 16:00N 31°24' E 121°33'3 5.3
2018-Apr-16 15:29N 31°23' E 121°36'6 9.3
2018-Apr-16 14:47N 31°20' E 121°42'3 9.8
2018-Apr-16 14:30N 31°19' E 121°45'510.8
2018-Apr-16 14:00N 31°16' E 121°51'2310.3
2018-Apr-16 11:44N 31°07' E 122°16'312.3
2018-Apr-16 11:30N 31°06' E 122°19'  
2018-Apr-12 04:40N 31°13' E 124°09'1013.8
2018-Apr-12 03:55N 31°21' E 124°16'1113.6
2018-Apr-12 03:08N 31°29' E 124°25'412.8
2018-Apr-12 02:49N 31°32' E 124°27'2217.9
2018-Apr-12 01:36N 31°49' E 124°43'318.4
2018-Apr-12 01:27N 31°51' E 124°45'2010.0
2018-Apr-11 23:29N 32°06' E 125°01'  
Track history (hours):
 
Tides and Currents Weather Stations Pressure Air Temp Water Temp Dewpoint Dewpoint Depression Visibility Wind Speed Wind Dir Waves Ship Positions

Sm Yantian

Last reported at 2018-Apr-21 16:58 UTC. Time now 2018-Apr-22 16:24 UTC.
Position N 41°40' E 141°41'.

Length 304 m; draft 12.8 m.

Type: Ship (hazmat cat A). MMSI: 372025000.

Date/timePositionNaut miles runAvg speedWind from/ knotsBaromVisibWave heightAir tempDewpointWater temp
2018-Apr-21 16:58N 41°40' E 141°41'1022.2
2018-Apr-21 16:30N 41°39' E 141°27'1020.8
2018-Apr-21 16:00N 41°38' E 141°13'1121.4
2018-Apr-21 15:30N 41°37' E 140°59'1122.0
2018-Apr-21 15:00N 41°33' E 140°45'1122.7
2018-Apr-21 14:31N 41°27' E 140°32'1223.6
2018-Apr-21 14:00N 41°20' E 140°19'59720.6
2018-Apr-20 09:04N 35°25' E 130°07'619.6
2018-Apr-20 08:46N 35°21' E 130°01'519.8
2018-Apr-20 08:29N 35°19' E 129°55'1020.3
2018-Apr-20 07:59N 35°13' E 129°44'1021.3
2018-Apr-20 07:30N 35°08' E 129°34'1121.6
2018-Apr-20 07:00N 35°01' E 129°23'1121.5
2018-Apr-20 06:29N 34°55' E 129°12'22 1.6
2018-Apr-19 16:50N 35°05' E 128°48'3 4.7
2018-Apr-19 16:14N 35°02' E 128°47'311.1
2018-Apr-19 16:00N 34°59' E 128°49'5 9.8
2018-Apr-19 15:30N 34°55' E 128°52'714.4
2018-Apr-19 15:00N 34°48' E 128°51'816.6
2018-Apr-19 14:30N 34°40' E 128°49'815.4
2018-Apr-19 14:00N 34°34' E 128°43'816.2
2018-Apr-19 13:30N 34°30' E 128°35'815.4
2018-Apr-19 13:00N 34°28' E 128°26'915.5
2018-Apr-19 12:25N 34°30' E 128°15'916.5
2018-Apr-19 11:53N 34°32' E 128°05'718.5
2018-Apr-19 11:30N 34°34' E 127°57'8 0.5
2018-Apr-18 19:57N 34°42' E 127°53'713.3
2018-Apr-18 19:25N 34°36' E 127°57'2515.2
2018-Apr-18 17:47N 34°12' E 128°02'415.5
2018-Apr-18 17:30N 34°08' E 127°60'815.5
2018-Apr-18 17:00N 34°03' E 127°53'815.3
2018-Apr-18 16:30N 33°57' E 127°46'815.2
2018-Apr-18 16:00N 33°51' E 127°40'815.4
2018-Apr-18 15:30N 33°46' E 127°33'815.4
2018-Apr-18 15:00N 33°40' E 127°28'815.5
2018-Apr-18 14:28N 33°33' E 127°22'715.2
2018-Apr-18 14:00N 33°28' E 127°16'1515.3
2018-Apr-18 12:59N 33°17' E 127°04'1015.5
2018-Apr-18 12:21N 33°11' E 126°54'515.4
2018-Apr-18 12:00N 33°08' E 126°49'815.4
2018-Apr-18 11:30N 33°03' E 126°41'815.2
2018-Apr-18 11:00N 32°59' E 126°34'1215.3
2018-Apr-18 10:14N 32°51' E 126°23'8815.9
2018-Apr-18 04:39N 32°06' E 124°52'319.3
2018-Apr-18 04:30N 32°05' E 124°50'1019.2
2018-Apr-18 04:00N 31°59' E 124°40'918.4
2018-Apr-18 03:29N 31°54' E 124°31'917.9
2018-Apr-18 03:00N 31°50' E 124°22'917.6
2018-Apr-18 02:30N 31°46' E 124°13'816.8
2018-Apr-18 02:00N 31°42' E 124°04'917.2
2018-Apr-18 01:29N 31°37' E 123°55'917.1
2018-Apr-18 00:58N 31°32' E 123°47'1216.8
2018-Apr-18 00:15N 31°26' E 123°35'516.8
2018-Apr-17 23:57N 31°23' E 123°29'817.1
2018-Apr-17 23:30N 31°20' E 123°22'1117.7
2018-Apr-17 22:52N 31°13' E 123°11'917.6
2018-Apr-17 22:22N 31°07' E 123°03'618.2
2018-Apr-17 22:00N 31°06' E 122°56'1019.4
2018-Apr-17 21:31N 31°06' E 122°44'1019.8
2018-Apr-17 21:00N 31°06' E 122°33'811.4
2018-Apr-17 20:20N 31°06' E 122°24'514.5
2018-Apr-17 19:59N 31°06' E 122°18'714.9
2018-Apr-17 19:30N 31°10' E 122°11'714.6
2018-Apr-17 19:00N 31°14' E 122°04'612.4
2018-Apr-17 18:30N 31°15' E 121°57'611.2
2018-Apr-17 18:00N 31°17' E 121°50'810.0
2018-Apr-17 17:13N 31°20' E 121°42'6 8.9
2018-Apr-17 16:35N 31°23' E 121°36'1 7.8
2018-Apr-17 16:30N 31°23' E 121°35'0 0.5
2018-Apr-17 15:59N 31°22' E 121°35'0 0.0
2018-Apr-17 15:26N 31°22' E 121°35'0 0.0
2018-Apr-17 14:05N 31°22' E 121°35'0 0.0
2018-Apr-16 18:41N 31°22' E 121°35'0 0.4
2018-Apr-16 18:29N 31°22' E 121°35'0 0.6
2018-Apr-16 17:46N 31°23' E 121°35'0 0.2
2018-Apr-16 17:21N 31°23' E 121°35'0 1.1
2018-Apr-16 17:00N 31°23' E 121°34'0 0.9
2018-Apr-16 16:30N 31°23' E 121°34'1 2.5
2018-Apr-16 16:00N 31°24' E 121°33'3 5.3
2018-Apr-16 15:29N 31°23' E 121°36'6 9.3
2018-Apr-16 14:47N 31°20' E 121°42'3 9.8
2018-Apr-16 14:30N 31°19' E 121°45'510.8
2018-Apr-16 14:00N 31°16' E 121°51'2310.3
2018-Apr-16 11:44N 31°07' E 122°16'312.3
2018-Apr-16 11:30N 31°06' E 122°19'  
2018-Apr-12 04:40N 31°13' E 124°09'1013.8
2018-Apr-12 03:55N 31°21' E 124°16'1113.6
2018-Apr-12 03:08N 31°29' E 124°25'412.8
2018-Apr-12 02:49N 31°32' E 124°27'2217.9
2018-Apr-12 01:36N 31°49' E 124°43'318.4
2018-Apr-12 01:27N 31°51' E 124°45'2010.0
2018-Apr-11 23:29N 32°06' E 125°01'  

Dump ship's entire track history